createdAt,value
2022-12-01T00:01:35.644Z,41.37
2022-12-01T00:04:08.479Z,41.40
2022-12-01T00:06:39.586Z,40.73
2022-12-01T00:09:31.705Z,40.47
2022-12-01T00:12:07.154Z,43.33
2022-12-01T00:14:41.795Z,43.83
2022-12-01T00:17:16.034Z,40.60
2022-12-01T00:22:28.272Z,39.57
2022-12-01T00:24:58.964Z,41.53
2022-12-01T00:27:32.803Z,39.47
2022-12-01T00:30:02.324Z,45.47
2022-12-01T00:32:34.531Z,41.77
2022-12-01T00:35:03.694Z,41.83
2022-12-01T00:37:43.163Z,45.57
2022-12-01T00:40:24.103Z,42.60
2022-12-01T00:42:55.670Z,41.17
2022-12-01T00:45:26.817Z,43.67
2022-12-01T00:48:08.876Z,40.57
2022-12-01T00:50:37.466Z,42.90
2022-12-01T00:53:08.539Z,41.13
2022-12-01T00:55:37.033Z,41.27
2022-12-01T01:01:08.978Z,44.33
2022-12-01T01:03:37.480Z,40.23
2022-12-01T01:06:13.717Z,42.23
2022-12-01T01:08:43.471Z,43.30
2022-12-01T01:11:14.832Z,47.07
2022-12-01T01:13:45.883Z,43.60
2022-12-01T01:16:21.091Z,42.30
2022-12-01T01:18:49.880Z,44.20
2022-12-01T01:21:21.854Z,44.10
2022-12-01T01:23:59.002Z,44.73
2022-12-01T01:26:30.970Z,45.23
2022-12-01T01:29:08.562Z,46.00
2022-12-01T01:31:41.802Z,44.77
2022-12-01T01:34:14.057Z,43.73
2022-12-01T01:36:50.070Z,43.37
2022-12-01T01:39:18.948Z,43.23
2022-12-01T01:41:50.308Z,47.30
2022-12-01T01:44:59.393Z,50.30
2022-12-01T01:47:33.349Z,46.10
2022-12-01T01:50:14.668Z,44.10
2022-12-01T01:52:57.580Z,49.17
2022-12-01T01:55:32.416Z,48.03
2022-12-01T01:58:11.434Z,48.47
2022-12-01T02:00:43.785Z,46.80
2022-12-01T02:03:16.093Z,46.70
2022-12-01T02:05:48.823Z,48.67
2022-12-01T02:11:28.502Z,52.93
2022-12-01T02:13:58.953Z,50.73
2022-12-01T02:17:02.348Z,49.60
2022-12-01T02:20:10.672Z,48.30
2022-12-01T02:23:19.285Z,54.37
2022-12-01T02:26:09.076Z,50.73
2022-12-01T02:28:59.090Z,52.40
2022-12-01T02:31:35.482Z,53.43
2022-12-01T02:34:43.087Z,53.00
2022-12-01T02:37:36.523Z,51.77
2022-12-01T02:40:41.010Z,51.33
2022-12-01T02:43:21.444Z,53.60
2022-12-01T02:46:18.513Z,54.80
2022-12-01T02:48:53.412Z,51.40
2022-12-01T02:51:37.122Z,54.20
2022-12-01T02:54:08.668Z,52.40
2022-12-01T02:56:45.447Z,55.93
2022-12-01T02:59:15.732Z,55.23
2022-12-01T03:01:58.330Z,53.90
2022-12-01T03:04:57.305Z,51.67
2022-12-01T03:07:58.688Z,53.77
2022-12-01T03:11:00.812Z,53.37
2022-12-01T03:13:57.805Z,52.87
2022-12-01T03:16:41.444Z,55.53
2022-12-01T03:19:36.839Z,51.67
2022-12-01T03:24:57.480Z,55.93
2022-12-01T03:27:33.778Z,53.10
2022-12-01T03:30:04.810Z,53.60
2022-12-01T03:32:56.022Z,55.83
2022-12-01T03:35:48.994Z,54.23
2022-12-01T03:38:25.266Z,51.13
2022-12-01T03:41:02.195Z,50.50
2022-12-01T03:43:38.591Z,52.57
2022-12-01T03:46:27.464Z,51.43
2022-12-01T03:48:58.830Z,53.33
2022-12-01T03:51:50.727Z,52.70
2022-12-01T03:54:54.911Z,51.90
2022-12-01T03:57:49.621Z,52.73
2022-12-01T04:03:05.939Z,54.17
2022-12-01T04:11:29.507Z,51.30
2022-12-01T04:14:03.390Z,50.77
2022-12-01T04:16:32.954Z,49.40
2022-12-01T04:21:45.239Z,50.50
2022-12-01T04:24:18.254Z,53.90
2022-12-01T04:26:48.859Z,54.20
2022-12-01T04:29:18.233Z,52.67
2022-12-01T04:31:48.157Z,53.17
2022-12-01T04:34:16.010Z,51.47
2022-12-01T04:36:46.041Z,50.27
2022-12-01T04:39:13.437Z,49.40
2022-12-01T04:41:41.924Z,51.73
2022-12-01T04:44:14.495Z,51.53
2022-12-01T04:46:46.028Z,54.20
2022-12-01T04:49:15.846Z,51.73
2022-12-01T04:51:46.582Z,51.17
2022-12-01T04:54:23.623Z,50.30
2022-12-01T04:56:54.344Z,48.87
2022-12-01T04:59:25.618Z,53.83
2022-12-01T05:02:01.252Z,50.23
2022-12-01T05:04:34.091Z,53.73
2022-12-01T05:07:04.353Z,48.77
2022-12-01T05:09:35.291Z,50.07
2022-12-01T05:12:06.455Z,49.10
2022-12-01T05:14:42.444Z,51.73
2022-12-01T05:17:12.189Z,49.43
2022-12-01T05:20:00.454Z,52.77
2022-12-01T05:23:03.831Z,52.00
2022-12-01T05:25:24.377Z,50.83
2022-12-01T05:28:06.443Z,48.63
2022-12-01T05:30:40.225Z,49.80
2022-12-01T05:33:12.737Z,51.00
2022-12-01T05:38:26.179Z,50.27
2022-12-01T05:40:59.994Z,52.43
2022-12-01T05:43:32.274Z,56.30
2022-12-01T05:46:08.711Z,54.57
2022-12-01T05:48:39.720Z,52.50
2022-12-01T05:51:15.884Z,53.13
2022-12-01T05:53:44.329Z,56.50
2022-12-01T05:56:16.397Z,52.00
2022-12-01T05:58:46.293Z,52.80
2022-12-01T06:01:17.191Z,50.50
2022-12-01T06:03:45.107Z,55.43
2022-12-01T06:06:14.750Z,54.97
2022-12-01T06:08:46.735Z,52.27
2022-12-01T06:11:18.311Z,48.80
2022-12-01T06:13:48.301Z,54.60
2022-12-01T06:16:20.999Z,53.40
2022-12-01T06:18:48.746Z,52.70
2022-12-01T06:21:20.177Z,51.20
2022-12-01T06:23:51.136Z,50.20
2022-12-01T06:26:20.920Z,53.03
2022-12-01T06:28:51.339Z,54.37
2022-12-01T06:31:22.503Z,52.67
2022-12-01T06:33:53.302Z,54.07
2022-12-01T06:36:23.107Z,52.23
2022-12-01T06:38:53.409Z,49.33
2022-12-01T06:41:22.145Z,54.97
2022-12-01T06:43:51.321Z,52.93
2022-12-01T06:46:21.535Z,53.03
2022-12-01T06:48:50.008Z,52.40
2022-12-01T06:51:20.324Z,53.83
2022-12-01T06:54:00.868Z,53.67
2022-12-01T06:59:16.008Z,55.10
2022-12-01T07:01:48.880Z,57.77
2022-12-01T07:04:19.734Z,54.13
2022-12-01T07:06:50.023Z,55.70
2022-12-01T07:09:18.379Z,53.47
2022-12-01T07:11:46.892Z,54.73
2022-12-01T07:14:24.232Z,53.83
2022-12-01T07:16:56.327Z,57.10
2022-12-01T07:19:27.641Z,54.07
2022-12-01T07:21:59.656Z,51.17
2022-12-01T07:24:30.347Z,55.90
2022-12-01T07:26:59.856Z,54.60
2022-12-01T07:29:31.356Z,51.60
2022-12-01T07:32:09.037Z,50.23
2022-12-01T07:34:38.055Z,53.17
2022-12-01T07:37:14.773Z,51.03
2022-12-01T07:39:44.417Z,55.37
2022-12-01T07:42:15.578Z,51.40
2022-12-01T07:44:48.008Z,53.47
2022-12-01T07:47:17.760Z,54.23
2022-12-01T07:49:45.754Z,53.60
2022-12-01T07:52:14.422Z,52.43
2022-12-01T07:57:30.299Z,53.33
2022-12-01T08:00:06.556Z,51.47
2022-12-01T08:02:56.748Z,53.97
2022-12-01T08:05:29.509Z,53.90
2022-12-01T08:10:43.068Z,53.00
2022-12-01T08:13:14.247Z,53.03
2022-12-01T08:15:47.806Z,89.20
2022-12-01T08:18:19.148Z,79.10
2022-12-01T08:20:50.363Z,86.50
2022-12-01T08:23:18.005Z,104.47
2022-12-01T08:25:47.901Z,95.57
2022-12-01T08:28:19.854Z,60.80
2022-12-01T08:30:51.691Z,53.43
2022-12-01T08:33:22.819Z,55.60
2022-12-01T08:35:53.045Z,52.33
2022-12-01T08:38:22.081Z,47.83
2022-12-01T08:40:52.001Z,50.77
2022-12-01T08:43:41.829Z,50.63
2022-12-01T08:46:16.821Z,49.63
2022-12-01T08:48:48.560Z,47.47
2022-12-01T08:51:19.395Z,48.27
2022-12-01T08:53:49.558Z,47.40
2022-12-01T08:56:40.252Z,46.23
2022-12-01T08:59:11.112Z,47.67
2022-12-01T09:01:54.514Z,48.03
2022-12-01T09:04:26.603Z,48.50
2022-12-01T09:06:57.964Z,47.63
2022-12-01T09:09:28.977Z,47.03
2022-12-01T09:11:57.625Z,48.57
2022-12-01T09:14:25.991Z,46.57
2022-12-01T09:16:57.896Z,47.60
2022-12-01T09:19:32.013Z,47.80
2022-12-01T09:22:01.663Z,46.93
2022-12-01T09:24:32.777Z,44.97
2022-12-01T09:27:10.956Z,44.43
2022-12-01T09:29:39.229Z,47.10
2022-12-01T09:32:09.350Z,48.27
2022-12-01T09:34:40.929Z,49.07
2022-12-01T09:37:14.590Z,48.20
2022-12-01T09:39:45.051Z,46.97
2022-12-01T09:42:20.983Z,46.07
2022-12-01T09:44:56.757Z,47.10
2022-12-01T09:47:39.557Z,46.83
2022-12-01T09:50:27.899Z,46.00
2022-12-01T09:53:10.751Z,48.03
2022-12-01T09:58:26.447Z,44.47
2022-12-01T10:01:04.579Z,45.60
2022-12-01T10:03:49.787Z,46.97
2022-12-01T10:06:47.488Z,48.57
2022-12-01T10:09:54.916Z,46.30
2022-12-01T10:12:33.145Z,53.67
2022-12-01T10:15:40.367Z,46.80
2022-12-01T10:18:36.849Z,48.17
2022-12-01T10:21:33.932Z,46.80
2022-12-01T10:24:34.756Z,45.93
2022-12-01T10:27:31.541Z,46.00
2022-12-01T10:30:19.807Z,46.77
2022-12-01T10:33:01.991Z,44.47
2022-12-01T10:35:37.999Z,43.93
2022-12-01T10:38:32.924Z,46.60
2022-12-01T10:41:05.865Z,45.73
2022-12-01T10:43:46.367Z,45.03
2022-12-01T10:46:44.863Z,46.37
2022-12-01T10:49:18.261Z,45.97
2022-12-01T10:51:55.088Z,44.40
2022-12-01T10:54:34.893Z,45.83
2022-12-01T10:57:06.594Z,44.67
2022-12-01T11:00:02.012Z,44.60
2022-12-01T11:02:33.691Z,45.43
2022-12-01T11:05:33.624Z,42.97
2022-12-01T11:08:03.174Z,45.43
2022-12-01T11:10:48.778Z,45.47
2022-12-01T11:13:32.768Z,45.43
2022-12-01T11:16:06.662Z,44.50
2022-12-01T11:18:39.506Z,45.50
2022-12-01T11:21:20.473Z,45.47
2022-12-01T11:23:51.810Z,45.67
2022-12-01T11:26:26.753Z,45.77
2022-12-01T11:29:05.017Z,45.70
2022-12-01T11:31:41.789Z,45.40
2022-12-01T11:34:21.845Z,46.93
2022-12-01T11:36:54.747Z,43.20
2022-12-01T11:39:56.663Z,42.90
2022-12-01T11:42:32.245Z,46.37
2022-12-01T11:45:32.820Z,44.30
2022-12-01T11:48:26.900Z,44.17
2022-12-01T11:51:20.068Z,43.93
2022-12-01T11:54:04.596Z,42.87
2022-12-01T11:56:36.023Z,44.27
2022-12-01T11:59:16.879Z,43.70
2022-12-01T12:02:27.152Z,43.97
2022-12-01T12:05:18.892Z,46.13
2022-12-01T12:08:32.084Z,44.73
2022-12-01T12:11:20.703Z,44.50
2022-12-01T12:14:28.745Z,45.60
2022-12-01T12:17:46.437Z,45.47
2022-12-01T12:20:41.073Z,41.67
2022-12-01T12:23:40.084Z,42.23
2022-12-01T12:26:57.577Z,45.70
2022-12-01T12:30:04.202Z,45.20
2022-12-01T12:32:43.019Z,46.17
2022-12-01T12:36:05.142Z,43.53
2022-12-01T12:39:12.091Z,45.20
2022-12-01T12:41:50.636Z,46.10
2022-12-01T12:44:36.981Z,45.57
2022-12-01T12:47:29.558Z,44.77
2022-12-01T12:50:10.301Z,44.53
2022-12-01T12:52:43.387Z,45.00
2022-12-01T12:55:22.375Z,44.20
2022-12-01T12:58:04.359Z,46.13
2022-12-01T13:00:42.428Z,42.30
2022-12-01T13:03:52.071Z,43.13
2022-12-01T13:06:38.766Z,41.67
2022-12-01T13:09:32.532Z,45.60
2022-12-01T13:12:16.074Z,45.40
2022-12-01T13:15:20.439Z,45.00
2022-12-01T13:18:10.890Z,45.27
2022-12-01T13:20:43.719Z,44.70
2022-12-01T13:23:26.675Z,44.33
2022-12-01T13:26:01.402Z,42.60
2022-12-01T13:28:50.546Z,46.10
2022-12-01T13:31:29.009Z,42.53
2022-12-01T13:34:05.751Z,43.90
2022-12-01T13:36:49.705Z,45.60
2022-12-01T13:39:42.384Z,45.63
2022-12-01T13:42:29.117Z,45.20
2022-12-01T13:45:01.625Z,46.43
2022-12-01T13:47:48.923Z,43.43
2022-12-01T13:50:49.117Z,43.67
2022-12-01T13:53:32.172Z,43.80
2022-12-01T13:56:18.253Z,44.30
2022-12-01T13:58:49.595Z,43.67
2022-12-01T14:01:35.917Z,47.60
2022-12-01T14:04:29.776Z,44.83
2022-12-01T14:07:37.386Z,51.70
2022-12-01T14:10:42.216Z,57.77
2022-12-01T14:13:19.942Z,56.03
2022-12-01T14:16:05.476Z,62.13
2022-12-01T14:18:59.210Z,70.20
2022-12-01T14:21:58.057Z,65.40
2022-12-01T14:25:01.501Z,53.87
2022-12-01T14:27:42.357Z,51.00
2022-12-01T14:30:45.049Z,50.90
2022-12-01T14:33:44.284Z,46.40
2022-12-01T14:36:47.378Z,46.47
2022-12-01T14:39:38.560Z,46.17
2022-12-01T14:42:46.704Z,44.83
2022-12-01T14:45:22.052Z,40.97
2022-12-01T14:48:03.783Z,44.43
2022-12-01T14:50:54.394Z,41.93
2022-12-01T14:53:32.784Z,41.20
2022-12-01T14:56:16.682Z,40.23
2022-12-01T14:59:01.134Z,41.53
2022-12-01T15:04:18.262Z,42.83
2022-12-01T15:06:47.454Z,42.83
2022-12-01T15:09:36.982Z,43.60
2022-12-01T15:12:11.600Z,43.27
2022-12-01T15:14:50.852Z,44.10
2022-12-01T15:17:36.115Z,46.70
2022-12-01T15:20:36.309Z,42.80
2022-12-01T15:23:17.535Z,46.93
2022-12-01T15:25:48.832Z,46.47
2022-12-01T15:28:20.380Z,42.37
2022-12-01T15:30:54.882Z,44.70
2022-12-01T15:33:36.751Z,50.33
2022-12-01T15:36:07.295Z,52.87
2022-12-01T15:38:39.839Z,52.00
2022-12-01T15:41:29.697Z,49.13
2022-12-01T15:44:12.945Z,52.80
2022-12-01T15:46:45.277Z,56.07
2022-12-01T15:49:31.897Z,53.80
2022-12-01T15:52:12.749Z,48.13
2022-12-01T15:54:46.615Z,47.90
2022-12-01T15:57:21.804Z,45.63
2022-12-01T15:59:56.289Z,45.40
2022-12-01T16:02:33.595Z,47.70
2022-12-01T16:05:06.987Z,50.03
2022-12-01T16:08:11.639Z,47.93
2022-12-01T16:10:41.618Z,47.73
2022-12-01T16:13:44.683Z,48.73
2022-12-01T16:16:36.291Z,48.17
2022-12-01T16:19:09.756Z,46.70
2022-12-01T16:21:57.445Z,51.40
2022-12-01T16:24:54.629Z,47.30
2022-12-01T16:27:30.873Z,44.78
2022-12-01T16:30:10.548Z,42.70
2022-12-01T16:32:41.932Z,45.73
2022-12-01T16:35:35.213Z,44.40
2022-12-01T16:38:16.396Z,45.87
2022-12-01T16:40:53.514Z,42.00
2022-12-01T16:46:14.523Z,42.70
2022-12-01T16:48:43.919Z,42.77
2022-12-01T16:51:17.317Z,46.17
2022-12-01T16:53:57.284Z,42.20
2022-12-01T16:56:35.605Z,43.47
2022-12-01T16:59:05.883Z,45.28
2022-12-01T17:01:35.968Z,42.50
2022-12-01T17:04:08.827Z,44.33
2022-12-01T17:06:47.887Z,42.07
2022-12-01T17:09:18.250Z,44.97
2022-12-01T17:11:48.240Z,44.23
2022-12-01T17:14:33.808Z,46.77
2022-12-01T17:17:11.284Z,46.00
2022-12-01T17:19:43.696Z,44.40
2022-12-01T17:22:13.504Z,44.58
2022-12-01T17:24:43.579Z,42.17
2022-12-01T17:27:14.529Z,41.67
2022-12-01T17:29:47.048Z,42.77
2022-12-01T17:32:17.926Z,42.30
2022-12-01T17:34:51.983Z,45.80
2022-12-01T17:37:34.406Z,45.93
2022-12-01T17:40:06.073Z,43.97
2022-12-01T17:42:39.800Z,44.00
2022-12-01T17:45:11.404Z,44.90
2022-12-01T17:47:42.463Z,43.80
2022-12-01T17:50:16.806Z,45.00
2022-12-01T17:52:47.038Z,47.08
2022-12-01T17:55:15.210Z,42.63
2022-12-01T17:57:48.696Z,44.00
2022-12-01T18:00:20.394Z,41.63
2022-12-01T18:02:54.063Z,43.23
2022-12-01T18:05:33.169Z,43.10
2022-12-01T18:08:02.488Z,46.23
2022-12-01T18:10:34.414Z,43.50
2022-12-01T18:13:08.190Z,43.60
2022-12-01T18:15:41.685Z,41.00
2022-12-01T18:18:14.708Z,45.37
2022-12-01T18:20:45.465Z,44.53
2022-12-01T18:23:23.606Z,43.23
2022-12-01T18:25:54.233Z,43.83
2022-12-01T18:28:23.462Z,40.40
2022-12-01T18:30:53.820Z,42.83
2022-12-01T18:33:25.375Z,43.43
2022-12-01T18:35:57.724Z,41.10
2022-12-01T18:38:33.048Z,43.93
2022-12-01T18:41:05.927Z,40.93
2022-12-01T18:43:35.577Z,45.80
2022-12-01T18:46:17.998Z,43.63
2022-12-01T18:48:54.704Z,45.73
2022-12-01T18:51:39.912Z,44.53
2022-12-01T18:54:14.378Z,47.87
2022-12-01T18:56:45.897Z,42.50
2022-12-01T18:59:19.435Z,45.47
2022-12-01T19:01:50.997Z,42.97
2022-12-01T19:04:27.242Z,41.63
2022-12-01T19:06:59.759Z,42.47
2022-12-01T19:09:32.436Z,40.97
2022-12-01T19:12:04.356Z,40.53
2022-12-01T19:14:34.512Z,41.70
2022-12-01T19:17:11.861Z,42.80
2022-12-01T19:19:50.701Z,41.37
2022-12-01T19:22:25.294Z,41.80
2022-12-01T19:25:04.908Z,39.80
2022-12-01T19:27:39.192Z,42.23
2022-12-01T19:30:08.991Z,43.40
2022-12-01T19:32:42.860Z,41.40
2022-12-01T19:35:15.685Z,43.27
2022-12-01T19:37:53.989Z,43.37
2022-12-01T19:43:08.459Z,44.87
2022-12-01T19:45:48.374Z,41.90
2022-12-01T19:48:21.832Z,42.90
2022-12-01T19:50:58.581Z,39.20
2022-12-01T19:53:44.216Z,42.67
2022-12-01T19:56:17.091Z,43.53
2022-12-01T19:58:50.557Z,47.33
2022-12-01T20:01:25.995Z,43.37
2022-12-01T20:04:00.027Z,46.47
2022-12-01T20:06:37.840Z,47.20
2022-12-01T20:09:11.015Z,47.83
2022-12-01T20:11:47.592Z,45.73
2022-12-01T20:14:17.193Z,45.13
2022-12-01T20:16:59.847Z,44.23
2022-12-01T20:19:30.005Z,43.73
2022-12-01T20:22:09.302Z,46.03
2022-12-01T20:24:57.381Z,44.50
2022-12-01T20:27:27.792Z,46.10
2022-12-01T20:30:06.633Z,47.83
2022-12-01T20:32:46.309Z,46.03
2022-12-01T20:38:10.644Z,44.53
2022-12-01T20:40:44.220Z,45.53
2022-12-01T20:43:17.435Z,42.03
2022-12-01T20:45:47.681Z,48.27
2022-12-01T20:48:22.844Z,43.93
2022-12-01T20:50:58.135Z,43.57
2022-12-01T20:53:27.786Z,45.07
2022-12-01T20:56:03.514Z,45.37
2022-12-01T20:58:37.275Z,44.27
2022-12-01T21:01:17.064Z,43.93
2022-12-01T21:03:51.613Z,46.07
2022-12-01T21:07:18.045Z,43.33
2022-12-01T21:09:59.606Z,44.10
2022-12-01T21:13:05.793Z,42.80
2022-12-01T21:16:13.729Z,41.90
2022-12-01T21:18:55.938Z,40.80
2022-12-01T21:21:31.523Z,41.83
2022-12-01T21:24:17.075Z,41.30
2022-12-01T21:27:01.679Z,39.63
2022-12-01T21:30:02.282Z,44.00
2022-12-01T21:32:46.805Z,42.87
2022-12-01T21:35:28.177Z,40.83
2022-12-01T21:38:05.453Z,43.40
2022-12-01T21:40:36.607Z,41.83
2022-12-01T21:43:26.722Z,45.07
2022-12-01T21:46:07.342Z,40.03
2022-12-01T21:48:40.423Z,42.03
2022-12-01T21:51:40.464Z,40.97
2022-12-01T21:54:22.845Z,42.20
2022-12-01T21:56:56.547Z,41.20
2022-12-01T21:59:30.656Z,39.97
2022-12-01T22:02:44.229Z,41.50
2022-12-01T22:05:40.843Z,44.17
2022-12-01T22:08:27.025Z,43.30
2022-12-01T22:11:05.368Z,44.37
2022-12-01T22:14:16.501Z,46.67
2022-12-01T22:16:57.053Z,43.73
2022-12-01T22:19:37.920Z,48.93
2022-12-01T22:22:09.351Z,48.87
2022-12-01T22:24:53.538Z,44.60
2022-12-01T22:27:29.337Z,45.37
2022-12-01T22:29:59.460Z,43.53
2022-12-01T22:32:40.827Z,40.50
2022-12-01T22:35:47.076Z,41.57
2022-12-01T22:38:28.322Z,42.07
2022-12-01T22:41:10.198Z,43.03
2022-12-01T22:44:02.664Z,39.40
2022-12-01T22:46:35.309Z,41.03
2022-12-01T22:49:26.697Z,43.10
2022-12-01T22:52:08.787Z,43.50
2022-12-01T22:54:45.471Z,41.03
2022-12-01T22:57:19.651Z,41.57
2022-12-01T22:59:50.759Z,43.47
2022-12-01T23:02:36.922Z,45.37
2022-12-01T23:05:27.329Z,42.37
2022-12-01T23:07:58.376Z,45.27
2022-12-01T23:10:34.129Z,44.67
2022-12-01T23:13:17.318Z,46.37
2022-12-01T23:15:53.740Z,44.63
2022-12-01T23:18:28.834Z,42.90
2022-12-01T23:21:03.227Z,42.20
2022-12-01T23:23:37.022Z,42.50
2022-12-01T23:28:52.029Z,43.13
2022-12-01T23:31:21.004Z,42.33
2022-12-01T23:33:50.053Z,40.43
2022-12-01T23:36:29.615Z,41.13
2022-12-01T23:39:02.380Z,42.83
2022-12-01T23:41:53.208Z,43.07
2022-12-01T23:44:44.125Z,42.03
2022-12-01T23:47:20.234Z,41.40
2022-12-01T23:50:00.088Z,39.97
2022-12-01T23:52:36.370Z,40.13
2022-12-01T23:55:28.521Z,43.60
2022-12-01T23:58:04.733Z,42.17
